createdAt,value
2022-08-11T00:04:36.213Z,15.90
2022-08-11T00:09:39.311Z,15.82
2022-08-11T00:14:42.928Z,15.79
2022-08-11T00:20:11.711Z,15.77
2022-08-11T00:25:15.078Z,15.68
2022-08-11T00:30:17.135Z,15.60
2022-08-11T00:35:53.703Z,15.48
2022-08-11T00:41:31.877Z,15.37
2022-08-11T00:46:40.616Z,15.29
2022-08-11T00:52:05.493Z,15.23
2022-08-11T00:57:46.153Z,15.17
2022-08-11T01:03:09.406Z,15.10
2022-08-11T01:08:10.355Z,14.99
2022-08-11T01:13:49.072Z,14.92
2022-08-11T01:19:15.526Z,14.86
2022-08-11T01:24:54.390Z,14.82
2022-08-11T01:30:13.289Z,14.79
2022-08-11T01:35:41.229Z,14.71
2022-08-11T01:41:04.185Z,14.63
2022-08-11T01:46:30.772Z,14.53
2022-08-11T01:52:09.618Z,14.48
2022-08-11T01:57:34.697Z,14.52
2022-08-11T02:02:46.814Z,14.53
2022-08-11T02:08:14.368Z,14.46
2022-08-11T02:13:41.532Z,14.41
2022-08-11T02:19:10.583Z,14.37
2022-08-11T02:24:20.135Z,14.31
2022-08-11T02:29:23.780Z,14.23
2022-08-11T02:34:39.644Z,14.25
2022-08-11T02:40:20.258Z,14.19
2022-08-11T02:46:00.217Z,14.07
2022-08-11T02:51:39.406Z,13.97
2022-08-11T02:56:46.375Z,13.98
2022-08-11T03:02:05.339Z,14.04
2022-08-11T03:07:44.409Z,14.06
2022-08-11T03:13:32.664Z,14.07
2022-08-11T03:19:11.137Z,14.09
2022-08-11T03:24:28.399Z,14.10
2022-08-11T03:29:50.530Z,14.11
2022-08-11T03:34:54.416Z,14.14
2022-08-11T03:40:14.367Z,14.16
2022-08-11T03:45:45.100Z,14.19
2022-08-11T03:50:55.758Z,14.24
2022-08-11T03:56:10.054Z,14.28
2022-08-11T04:01:53.290Z,14.33
2022-08-11T04:07:17.410Z,14.39
2022-08-11T04:12:56.673Z,14.47
2022-08-11T04:18:16.356Z,14.55
2022-08-11T04:24:34.642Z,14.63
2022-08-11T04:30:03.287Z,14.69
2022-08-11T04:35:32.622Z,14.78
2022-08-11T04:40:56.109Z,14.88
2022-08-11T04:46:22.207Z,15.01
2022-08-11T04:52:19.741Z,15.12
2022-08-11T04:58:10.403Z,15.20
2022-08-11T05:03:40.015Z,15.22
2022-08-11T05:09:13.151Z,15.28
2022-08-11T05:14:36.521Z,15.41
2022-08-11T05:19:57.133Z,15.57
2022-08-11T05:26:44.509Z,15.70
2022-08-11T05:31:06.722Z,17.14
2022-08-11T05:36:13.881Z,22.66
2022-08-11T05:41:38.671Z,27.48
2022-08-11T05:46:59.708Z,31.06
2022-08-11T05:52:20.945Z,32.87
2022-08-11T05:57:48.946Z,34.56
2022-08-11T06:03:06.478Z,36.34
2022-08-11T06:08:09.131Z,37.63
2022-08-11T06:13:15.414Z,38.54
2022-08-11T06:18:17.512Z,39.83
2022-08-11T06:23:23.015Z,40.50
2022-08-11T06:28:37.901Z,40.97
2022-08-11T06:34:12.864Z,41.27
2022-08-11T06:39:51.679Z,42.06
2022-08-11T06:45:06.570Z,42.74
2022-08-11T06:50:26.616Z,43.42
2022-08-11T06:55:57.450Z,43.34
2022-08-11T07:01:06.438Z,42.99
2022-08-11T07:06:50.216Z,42.88
2022-08-11T07:12:17.151Z,43.16
2022-08-11T07:17:22.452Z,43.33
2022-08-11T07:22:43.933Z,42.88
2022-08-11T07:28:09.091Z,42.72
2022-08-11T07:33:14.294Z,42.20
2022-08-11T07:38:43.526Z,42.14
2022-08-11T07:43:54.391Z,42.01
2022-08-11T07:49:14.826Z,41.74
2022-08-11T07:54:16.519Z,41.17
2022-08-11T08:00:00.267Z,40.87
2022-08-11T08:05:17.789Z,40.11
2022-08-11T08:10:38.567Z,40.02
2022-08-11T08:16:00.136Z,39.40
2022-08-11T08:21:13.978Z,38.81
2022-08-11T08:26:34.561Z,38.47
2022-08-11T08:31:35.901Z,38.13
2022-08-11T08:36:41.787Z,37.68
2022-08-11T08:41:44.592Z,37.21
2022-08-11T08:46:51.003Z,36.62
2022-08-11T08:52:42.730Z,35.87
2022-08-11T08:57:17.943Z,35.07
2022-08-11T09:02:34.744Z,34.60
2022-08-11T09:07:39.196Z,34.05
2022-08-11T09:12:44.428Z,33.71
2022-08-11T09:17:50.886Z,33.78
2022-08-11T09:28:37.237Z,33.09
2022-08-11T09:33:40.106Z,33.11
2022-08-11T09:39:02.988Z,33.17
2022-08-11T09:44:23.582Z,33.08
2022-08-11T09:49:28.140Z,32.67
2022-08-11T09:54:29.806Z,32.08
2022-08-11T09:59:31.913Z,31.40
2022-08-11T10:04:40.777Z,31.15
2022-08-11T10:10:01.432Z,30.80
2022-08-11T10:15:32.466Z,30.59
2022-08-11T10:20:38.321Z,30.62
2022-08-11T10:26:03.952Z,30.72
2022-08-11T10:31:24.046Z,30.57
2022-08-11T10:36:33.515Z,30.56
2022-08-11T10:42:02.840Z,30.61
2022-08-11T10:47:31.706Z,30.24
2022-08-11T10:52:54.359Z,30.06
2022-08-11T10:58:15.007Z,30.01
2022-08-11T11:03:16.940Z,29.88
2022-08-11T11:14:10.882Z,29.87
2022-08-11T11:19:49.409Z,30.08
2022-08-11T11:25:03.344Z,29.89
2022-08-11T11:30:05.985Z,29.50
2022-08-11T11:35:52.335Z,28.76
2022-08-11T11:41:12.691Z,28.25
2022-08-11T11:46:14.472Z,28.48
2022-08-11T11:51:16.439Z,28.67
2022-08-11T11:56:18.222Z,28.88
2022-08-11T12:01:21.418Z,29.29
2022-08-11T12:06:25.128Z,29.48
2022-08-11T12:11:47.567Z,29.57
2022-08-11T12:16:49.257Z,29.69
2022-08-11T12:22:12.516Z,29.80
2022-08-11T12:27:24.020Z,29.67
2022-08-11T12:32:30.070Z,29.51
2022-08-11T12:37:36.038Z,29.31
2022-08-11T12:42:56.411Z,29.08
2022-08-11T12:48:59.027Z,29.01
2022-08-11T12:53:54.904Z,29.00
2022-08-11T12:59:17.306Z,28.88
2022-08-11T13:04:37.231Z,28.88
2022-08-11T13:09:41.559Z,28.86
2022-08-11T13:14:43.702Z,28.85
2022-08-11T13:19:49.850Z,28.86
2022-08-11T13:24:54.408Z,28.80
2022-08-11T13:30:14.799Z,28.72
2022-08-11T13:35:18.009Z,28.82
2022-08-11T13:40:33.141Z,28.95
2022-08-11T13:45:46.773Z,29.02
2022-08-11T13:51:06.658Z,29.09
2022-08-11T13:56:08.247Z,29.18
2022-08-11T14:02:03.789Z,29.23
2022-08-11T14:06:34.211Z,29.26
2022-08-11T14:12:21.659Z,29.21
2022-08-11T14:17:47.280Z,29.23
2022-08-11T14:22:42.804Z,29.15
2022-08-11T14:28:31.071Z,29.13
2022-08-11T14:33:17.285Z,29.07
2022-08-11T14:38:21.782Z,28.98
2022-08-11T14:44:02.744Z,28.94
2022-08-11T14:49:05.087Z,28.92
2022-08-11T14:54:26.926Z,28.95
2022-08-11T14:59:29.407Z,28.91
2022-08-11T15:04:36.697Z,28.72
2022-08-11T15:10:09.801Z,28.60
2022-08-11T15:15:26.412Z,28.64
2022-08-11T15:20:47.989Z,28.69
2022-08-11T15:26:02.431Z,28.65
2022-08-11T15:31:22.413Z,28.59
2022-08-11T15:36:44.951Z,28.53
2022-08-11T15:42:26.424Z,28.48
2022-08-11T15:47:36.032Z,28.34
2022-08-11T15:52:42.682Z,28.24
2022-08-11T15:58:06.838Z,28.14
2022-08-11T16:04:06.448Z,27.93
2022-08-11T16:08:50.812Z,27.79
2022-08-11T16:14:12.077Z,27.73
2022-08-11T16:19:14.920Z,27.76
2022-08-11T16:27:03.732Z,28.05
2022-08-11T16:29:46.960Z,27.89
2022-08-11T16:35:13.354Z,28.38
2022-08-11T16:40:15.969Z,28.13
2022-08-11T16:45:35.951Z,27.87
2022-08-11T16:50:38.250Z,27.68
2022-08-11T16:55:51.719Z,27.41
2022-08-11T17:00:57.492Z,27.22
2022-08-11T17:06:18.994Z,27.30
2022-08-11T17:11:42.938Z,27.25
2022-08-11T17:16:48.309Z,27.24
2022-08-11T17:22:10.195Z,26.92
2022-08-11T17:27:18.161Z,26.59
2022-08-11T17:32:56.237Z,26.30
2022-08-11T17:38:09.393Z,25.96
2022-08-11T17:43:29.070Z,25.67
2022-08-11T17:48:35.285Z,25.33
2022-08-11T17:54:09.943Z,25.01
2022-08-11T17:59:40.873Z,24.66
2022-08-11T18:04:53.114Z,24.36
2022-08-11T18:10:12.792Z,24.09
2022-08-11T18:15:32.899Z,23.81
2022-08-11T18:20:53.824Z,23.57
2022-08-11T18:26:19.922Z,23.34
2022-08-11T18:31:40.934Z,23.10
2022-08-11T18:37:27.406Z,22.85
2022-08-11T18:42:59.134Z,22.59
2022-08-11T18:48:22.684Z,22.41
2022-08-11T18:53:48.175Z,22.26
2022-08-11T18:59:09.054Z,22.11
2022-08-11T19:04:30.067Z,21.94
2022-08-11T19:09:53.875Z,21.79
2022-08-11T19:15:15.929Z,21.63
2022-08-11T19:20:39.872Z,21.49
2022-08-11T19:26:01.841Z,21.33
2022-08-11T19:31:22.378Z,21.21
2022-08-11T19:36:43.869Z,21.10
2022-08-11T19:42:04.835Z,20.97
2022-08-11T19:47:24.757Z,20.86
2022-08-11T19:52:46.766Z,20.75
2022-08-11T19:58:07.572Z,20.65
2022-08-11T20:03:29.408Z,20.53
2022-08-11T20:08:49.936Z,20.44
2022-08-11T20:14:13.869Z,20.33
2022-08-11T20:19:56.373Z,20.21
2022-08-11T20:25:13.731Z,20.10
2022-08-11T20:30:33.444Z,19.99
2022-08-11T20:35:55.091Z,19.89
2022-08-11T20:41:16.710Z,19.80
2022-08-11T20:46:38.221Z,19.69
2022-08-11T20:52:06.169Z,19.59
2022-08-11T21:03:10.241Z,19.39
2022-08-11T21:08:34.119Z,19.30
2022-08-11T21:13:57.898Z,19.24
2022-08-11T21:19:59.569Z,19.18
2022-08-11T21:25:21.724Z,19.12
2022-08-11T21:30:43.799Z,19.06
2022-08-11T21:36:02.776Z,18.97
2022-08-11T21:41:24.634Z,18.85
2022-08-11T21:46:45.193Z,18.73
2022-08-11T21:52:05.114Z,18.63
2022-08-11T21:57:25.284Z,18.54
2022-08-11T22:02:52.232Z,18.44
2022-08-11T22:08:13.319Z,18.35
2022-08-11T22:13:33.377Z,18.28
2022-08-11T22:18:53.843Z,18.19
2022-08-11T22:24:18.301Z,18.08
2022-08-11T22:29:50.568Z,18.00
2022-08-11T22:35:11.867Z,17.92
2022-08-11T22:40:32.394Z,17.86
2022-08-11T22:45:51.945Z,17.79
2022-08-11T22:51:13.298Z,17.70
2022-08-11T22:56:34.547Z,17.63
2022-08-11T23:01:57.622Z,17.60
2022-08-11T23:07:49.894Z,17.59
2022-08-11T23:13:00.705Z,17.58
2022-08-11T23:18:21.341Z,17.55
2022-08-11T23:23:41.745Z,17.50
2022-08-11T23:29:04.903Z,17.44
2022-08-11T23:34:41.744Z,17.37
2022-08-11T23:40:12.769Z,17.28
2022-08-11T23:45:32.645Z,17.21
2022-08-11T23:51:13.987Z,17.17
2022-08-11T23:56:33.845Z,17.16
